To NAV CANADA Home Page Login to a new session Search on AWWS site Feedback and Comments Disclaimer Vers la page française équivalente Tips FAQ What's new on the site To the Forecasts and Observations / NOTAM section To "File a Flight Plan" website Publications and other links Update of the User's profile FIC Telephone Numbers My Weather Data Folder Route Weather Data Regional Weather Data Local Weather Data To the Forecasts and Observations / NOTAM section
Request Generated 05/06/2016 at 18:46:26 UTC . Weather information available at that time is displayed.

METAR/TAF

ST. ANTHONY/NL    (show WxCam)

SPECI CYAY 061805Z AUTO 11007KT 9SM -RA BKN005 OVC012 04/03 A2986 RMK
SLP115=
METAR CYAY 061800Z AUTO 11008KT 9SM -RA SCT005 OVC012 04/03 A2986 RMK
SLP116=
SPECI CYAY 061756Z AUTO 11009KT 9SM -RA SCT005 OVC012 04/03 A2987 RMK
SLP117=
SPECI CYAY 061729Z AUTO 10007KT 6SM -RA BR BKN003 OVC012 04/03 A2987
RMK SLP119=
SPECI CYAY 061723Z AUTO 10004KT 5SM -RA BR BKN003 OVC012 04/04 A2987
RMK SLP120=
SPECI CYAY 061721Z AUTO 10006KT 6SM -RA BR BKN003 OVC012 04/04 A2988
RMK SLP121=
SPECI CYAY 061718Z AUTO 10007KT 7SM BKN003 OVC012 04/04 A2988 RMK
SLP122=
METAR CYAY 061700Z AUTO 11009KT 9SM -RA BKN003 OVC016 04/04 A2988 RMK
SLP123=
SPECI CYAY 061654Z AUTO 10008KT 6SM -RA BR BKN003 OVC016 04/04 A2988
RMK SLP122=
SPECI CYAY 061649Z AUTO 09010KT 3SM -RA BR BKN003 OVC014 04/04 A2988
RMK SLP123=
SPECI CYAY 061645Z AUTO 09010KT 3SM -RA BR SCT003 OVC014 04/04 A2988
RMK SLP122=
SPECI CYAY 061632Z AUTO 10012G17KT 3SM -RA BR BKN003 OVC014 04/03
A2989 RMK SLP125=
SPECI CYAY 061623Z AUTO 09013KT 2 1/2SM -RA BR BKN003 OVC014 04/03
A2990 RMK SLP127=
SPECI CYAY 061614Z AUTO 10012KT 2SM BR OVC003 04/03 A2990 RMK PRESRR
SLP128=
SPECI CYAY 061609Z AUTO 09011G16KT 1 3/4SM BR OVC003 04/03 A2990 RMK
PRESRR SLP128=
METAR CYAY 061600Z AUTO 09012G17KT 2 1/2SM BR OVC003 04/04 A2989 RMK
SLP124=

TAF AMD CYAY 061804Z 0618/0702 10010KT 3SM -RA BR BKN003 OVC012 TEMPO
0618/0621 6SM BR SCT003 OVC012
FM062100 06012KT 11/2SM -DZ BR OVC004 PROB40 0621/0624 OVC003
FM070000 01008KT 1SM -DZ BR OVC002
RMK FCST BASED ON AUTO OBS. NXT FCST BY 062000Z=
Your time UTC time
Weather data provided by Environment Canada and NAV CANADA